sensor_id;sensor_type;location;lat;lon;timestamp;P1;durP1;ratioP1;P2;durP2;ratioP2
51838;SDS011;37886;53.174;6.368;2024-03-08T00:01:30;32.30;;;13.27;;
51838;SDS011;37886;53.174;6.368;2024-03-08T00:03:56;31.83;;;12.90;;
51838;SDS011;37886;53.174;6.368;2024-03-08T00:06:22;31.98;;;12.90;;
51838;SDS011;37886;53.174;6.368;2024-03-08T00:08:47;34.78;;;14.05;;
51838;SDS011;37886;53.174;6.368;2024-03-08T00:11:13;38.95;;;13.88;;
51838;SDS011;37886;53.174;6.368;2024-03-08T00:13:39;37.35;;;13.35;;
51838;SDS011;37886;53.174;6.368;2024-03-08T00:16:05;33.13;;;13.65;;
51838;SDS011;37886;53.174;6.368;2024-03-08T00:18:30;37.95;;;13.68;;
51838;SDS011;37886;53.174;6.368;2024-03-08T00:20:56;32.60;;;13.77;;
51838;SDS011;37886;53.174;6.368;2024-03-08T00:23:22;32.10;;;14.15;;
51838;SDS011;37886;53.174;6.368;2024-03-08T00:25:48;38.55;;;14.75;;
51838;SDS011;37886;53.174;6.368;2024-03-08T00:28:14;40.05;;;14.65;;
51838;SDS011;37886;53.174;6.368;2024-03-08T00:30:42;38.17;;;15.20;;
51838;SDS011;37886;53.174;6.368;2024-03-08T00:33:08;43.00;;;15.40;;
51838;SDS011;37886;53.174;6.368;2024-03-08T00:35:33;41.08;;;15.55;;
51838;SDS011;37886;53.174;6.368;2024-03-08T00:37:59;44.72;;;16.88;;
51838;SDS011;37886;53.174;6.368;2024-03-08T00:40:25;40.42;;;15.88;;
51838;SDS011;37886;53.174;6.368;2024-03-08T00:42:50;40.88;;;16.42;;
51838;SDS011;37886;53.174;6.368;2024-03-08T00:45:18;46.10;;;17.10;;
51838;SDS011;37886;53.174;6.368;2024-03-08T00:47:44;40.17;;;16.20;;
51838;SDS011;37886;53.174;6.368;2024-03-08T00:50:09;39.85;;;16.95;;
51838;SDS011;37886;53.174;6.368;2024-03-08T00:52:38;45.88;;;17.20;;
51838;SDS011;37886;53.174;6.368;2024-03-08T00:55:03;42.63;;;16.73;;
51838;SDS011;37886;53.174;6.368;2024-03-08T00:57:29;44.70;;;17.23;;
51838;SDS011;37886;53.174;6.368;2024-03-08T00:59:55;44.03;;;17.77;;
51838;SDS011;37886;53.174;6.368;2024-03-08T01:02:21;42.78;;;17.55;;
51838;SDS011;37886;53.174;6.368;2024-03-08T01:04:48;43.78;;;16.73;;
51838;SDS011;37886;53.174;6.368;2024-03-08T01:07:15;44.88;;;17.02;;
51838;SDS011;37886;53.174;6.368;2024-03-08T01:09:41;46.53;;;16.85;;
51838;SDS011;37886;53.174;6.368;2024-03-08T01:12:06;45.60;;;17.15;;
51838;SDS011;37886;53.174;6.368;2024-03-08T01:14:32;52.42;;;17.33;;
51838;SDS011;37886;53.174;6.368;2024-03-08T01:16:58;53.13;;;18.30;;
51838;SDS011;37886;53.174;6.368;2024-03-08T01:19:24;45.95;;;18.23;;
51838;SDS011;37886;53.174;6.368;2024-03-08T01:21:50;43.53;;;17.30;;
51838;SDS011;37886;53.174;6.368;2024-03-08T01:24:16;47.22;;;17.40;;
51838;SDS011;37886;53.174;6.368;2024-03-08T01:26:42;43.28;;;16.58;;
51838;SDS011;37886;53.174;6.368;2024-03-08T01:29:08;44.15;;;16.38;;
51838;SDS011;37886;53.174;6.368;2024-03-08T01:31:33;47.17;;;17.15;;
51838;SDS011;37886;53.174;6.368;2024-03-08T01:34:01;50.78;;;18.15;;
51838;SDS011;37886;53.174;6.368;2024-03-08T01:36:27;47.90;;;17.45;;
51838;SDS011;37886;53.174;6.368;2024-03-08T01:38:53;42.70;;;16.55;;
51838;SDS011;37886;53.174;6.368;2024-03-08T01:41:18;50.33;;;17.65;;
51838;SDS011;37886;53.174;6.368;2024-03-08T01:43:45;51.28;;;17.35;;
51838;SDS011;37886;53.174;6.368;2024-03-08T01:46:11;47.78;;;17.10;;
51838;SDS011;37886;53.174;6.368;2024-03-08T01:48:41;52.80;;;17.60;;
51838;SDS011;37886;53.174;6.368;2024-03-08T01:51:07;46.92;;;17.83;;
51838;SDS011;37886;53.174;6.368;2024-03-08T01:53:33;49.55;;;17.95;;
51838;SDS011;37886;53.174;6.368;2024-03-08T01:56:00;44.63;;;17.85;;
51838;SDS011;37886;53.174;6.368;2024-03-08T01:58:28;53.40;;;17.95;;
51838;SDS011;37886;53.174;6.368;2024-03-08T02:00:56;50.25;;;18.85;;
51838;SDS011;37886;53.174;6.368;2024-03-08T02:03:23;52.58;;;18.27;;
51838;SDS011;37886;53.174;6.368;2024-03-08T02:05:49;52.50;;;18.00;;
51838;SDS011;37886;53.174;6.368;2024-03-08T02:08:16;51.72;;;17.38;;
51838;SDS011;37886;53.174;6.368;2024-03-08T02:10:46;55.35;;;18.85;;
51838;SDS011;37886;53.174;6.368;2024-03-08T02:13:12;51.88;;;18.23;;
51838;SDS011;37886;53.174;6.368;2024-03-08T02:15:57;53.25;;;18.05;;
51838;SDS011;37886;53.174;6.368;2024-03-08T02:18:24;49.42;;;17.70;;
51838;SDS011;37886;53.174;6.368;2024-03-08T02:20:54;49.13;;;18.20;;
51838;SDS011;37886;53.174;6.368;2024-03-08T02:23:22;47.83;;;18.38;;
51838;SDS011;37886;53.174;6.368;2024-03-08T02:25:50;47.20;;;18.17;;
51838;SDS011;37886;53.174;6.368;2024-03-08T02:28:16;50.45;;;17.90;;
51838;SDS011;37886;53.174;6.368;2024-03-08T02:30:44;49.83;;;18.00;;
51838;SDS011;37886;53.174;6.368;2024-03-08T02:33:13;49.20;;;17.55;;
51838;SDS011;37886;53.174;6.368;2024-03-08T02:35:41;54.87;;;18.57;;
51838;SDS011;37886;53.174;6.368;2024-03-08T02:38:13;51.88;;;18.98;;
51838;SDS011;37886;53.174;6.368;2024-03-08T02:40:43;46.50;;;17.30;;
51838;SDS011;37886;53.174;6.368;2024-03-08T02:43:10;47.92;;;18.70;;
51838;SDS011;37886;53.174;6.368;2024-03-08T02:45:37;49.42;;;17.98;;
51838;SDS011;37886;53.174;6.368;2024-03-08T02:48:03;53.42;;;18.13;;
51838;SDS011;37886;53.174;6.368;2024-03-08T02:50:31;46.10;;;17.27;;
51838;SDS011;37886;53.174;6.368;2024-03-08T02:52:58;52.92;;;18.02;;
51838;SDS011;37886;53.174;6.368;2024-03-08T02:55:24;48.83;;;17.98;;
51838;SDS011;37886;53.174;6.368;2024-03-08T02:57:51;58.63;;;18.08;;
51838;SDS011;37886;53.174;6.368;2024-03-08T03:00:17;46.60;;;17.30;;
51838;SDS011;37886;53.174;6.368;2024-03-08T03:02:44;46.55;;;17.02;;
51838;SDS011;37886;53.174;6.368;2024-03-08T03:05:11;45.97;;;16.73;;
51838;SDS011;37886;53.174;6.368;2024-03-08T03:07:37;44.78;;;17.55;;
51838;SDS011;37886;53.174;6.368;2024-03-08T03:10:03;45.28;;;17.27;;
51838;SDS011;37886;53.174;6.368;2024-03-08T03:12:29;45.20;;;16.88;;
51838;SDS011;37886;53.174;6.368;2024-03-08T03:14:56;45.67;;;17.48;;
51838;SDS011;37886;53.174;6.368;2024-03-08T03:17:23;46.78;;;17.35;;
51838;SDS011;37886;53.174;6.368;2024-03-08T03:19:49;48.88;;;17.45;;
51838;SDS011;37886;53.174;6.368;2024-03-08T03:22:17;52.75;;;17.80;;
51838;SDS011;37886;53.174;6.368;2024-03-08T03:24:43;46.45;;;16.30;;
51838;SDS011;37886;53.174;6.368;2024-03-08T03:27:12;45.13;;;16.63;;
51838;SDS011;37886;53.174;6.368;2024-03-08T03:29:40;44.92;;;16.65;;
51838;SDS011;37886;53.174;6.368;2024-03-08T03:32:14;48.42;;;16.50;;
51838;SDS011;37886;53.174;6.368;2024-03-08T03:34:40;44.83;;;16.17;;
51838;SDS011;37886;53.174;6.368;2024-03-08T03:37:08;48.22;;;16.60;;
51838;SDS011;37886;53.174;6.368;2024-03-08T03:39:37;38.15;;;15.88;;
51838;SDS011;37886;53.174;6.368;2024-03-08T03:42:18;37.80;;;16.10;;
51838;SDS011;37886;53.174;6.368;2024-03-08T03:44:47;39.05;;;15.70;;
51838;SDS011;37886;53.174;6.368;2024-03-08T03:47:14;40.22;;;15.20;;
51838;SDS011;37886;53.174;6.368;2024-03-08T03:49:40;45.30;;;16.30;;
51838;SDS011;37886;53.174;6.368;2024-03-08T03:52:07;46.53;;;15.82;;
51838;SDS011;37886;53.174;6.368;2024-03-08T03:54:33;50.10;;;16.15;;
51838;SDS011;37886;53.174;6.368;2024-03-08T03:56:59;42.03;;;16.17;;
51838;SDS011;37886;53.174;6.368;2024-03-08T03:59:25;41.20;;;15.52;;
51838;SDS011;37886;53.174;6.368;2024-03-08T04:01:52;42.67;;;15.98;;
51838;SDS011;37886;53.174;6.368;2024-03-08T04:04:19;44.22;;;15.68;;
51838;SDS011;37886;53.174;6.368;2024-03-08T04:06:45;34.45;;;14.93;;
51838;SDS011;37886;53.174;6.368;2024-03-08T04:09:13;44.42;;;15.95;;
51838;SDS011;37886;53.174;6.368;2024-03-08T04:11:44;43.58;;;16.02;;
51838;SDS011;37886;53.174;6.368;2024-03-08T04:14:10;41.40;;;15.30;;
51838;SDS011;37886;53.174;6.368;2024-03-08T04:16:35;45.58;;;15.98;;
51838;SDS011;37886;53.174;6.368;2024-03-08T04:19:05;45.22;;;15.23;;
51838;SDS011;37886;53.174;6.368;2024-03-08T04:21:30;41.65;;;15.50;;
51838;SDS011;37886;53.174;6.368;2024-03-08T04:23:56;39.42;;;14.82;;
51838;SDS011;37886;53.174;6.368;2024-03-08T04:26:22;38.83;;;15.02;;
51838;SDS011;37886;53.174;6.368;2024-03-08T04:28:48;42.00;;;15.30;;
51838;SDS011;37886;53.174;6.368;2024-03-08T04:31:13;36.00;;;14.88;;
51838;SDS011;37886;53.174;6.368;2024-03-08T04:33:40;39.90;;;15.15;;
51838;SDS011;37886;53.174;6.368;2024-03-08T04:36:06;44.92;;;15.55;;
51838;SDS011;37886;53.174;6.368;2024-03-08T04:38:32;37.40;;;14.35;;
51838;SDS011;37886;53.174;6.368;2024-03-08T04:40:59;42.38;;;15.25;;
51838;SDS011;37886;53.174;6.368;2024-03-08T04:43:27;40.67;;;15.30;;
51838;SDS011;37886;53.174;6.368;2024-03-08T04:45:55;47.25;;;15.57;;
51838;SDS011;37886;53.174;6.368;2024-03-08T04:48:21;44.45;;;15.82;;
51838;SDS011;37886;53.174;6.368;2024-03-08T04:50:46;39.05;;;14.57;;
51838;SDS011;37886;53.174;6.368;2024-03-08T04:53:12;38.72;;;15.25;;
51838;SDS011;37886;53.174;6.368;2024-03-08T04:55:38;52.03;;;15.57;;
51838;SDS011;37886;53.174;6.368;2024-03-08T04:58:04;44.92;;;15.00;;
51838;SDS011;37886;53.174;6.368;2024-03-08T05:00:33;40.72;;;15.82;;
51838;SDS011;37886;53.174;6.368;2024-03-08T05:02:58;44.58;;;15.88;;
51838;SDS011;37886;53.174;6.368;2024-03-08T05:05:24;35.35;;;14.27;;
51838;SDS011;37886;53.174;6.368;2024-03-08T05:07:51;38.40;;;14.75;;
51838;SDS011;37886;53.174;6.368;2024-03-08T05:10:17;39.65;;;14.15;;
51838;SDS011;37886;53.174;6.368;2024-03-08T05:12:43;40.78;;;14.63;;
51838;SDS011;37886;53.174;6.368;2024-03-08T05:15:09;37.50;;;14.77;;
51838;SDS011;37886;53.174;6.368;2024-03-08T05:17:35;41.33;;;14.93;;
51838;SDS011;37886;53.174;6.368;2024-03-08T05:20:01;50.40;;;16.02;;
51838;SDS011;37886;53.174;6.368;2024-03-08T05:22:27;41.85;;;14.68;;
51838;SDS011;37886;53.174;6.368;2024-03-08T05:24:53;36.55;;;14.60;;
51838;SDS011;37886;53.174;6.368;2024-03-08T05:27:18;37.22;;;14.90;;
51838;SDS011;37886;53.174;6.368;2024-03-08T05:29:44;43.67;;;15.38;;
51838;SDS011;37886;53.174;6.368;2024-03-08T05:32:11;41.70;;;14.75;;
51838;SDS011;37886;53.174;6.368;2024-03-08T05:34:37;41.63;;;15.43;;
51838;SDS011;37886;53.174;6.368;2024-03-08T05:37:03;36.50;;;14.40;;
51838;SDS011;37886;53.174;6.368;2024-03-08T05:39:29;42.10;;;15.27;;
51838;SDS011;37886;53.174;6.368;2024-03-08T05:41:55;39.83;;;15.25;;
51838;SDS011;37886;53.174;6.368;2024-03-08T05:44:21;42.28;;;15.52;;
51838;SDS011;37886;53.174;6.368;2024-03-08T05:46:46;39.70;;;15.18;;
51838;SDS011;37886;53.174;6.368;2024-03-08T05:49:12;46.20;;;15.10;;
51838;SDS011;37886;53.174;6.368;2024-03-08T05:51:39;35.33;;;14.02;;
51838;SDS011;37886;53.174;6.368;2024-03-08T05:54:06;43.50;;;14.43;;
51838;SDS011;37886;53.174;6.368;2024-03-08T05:56:36;38.40;;;14.48;;
51838;SDS011;37886;53.174;6.368;2024-03-08T05:59:03;37.08;;;14.68;;
51838;SDS011;37886;53.174;6.368;2024-03-08T06:01:29;36.50;;;14.73;;
51838;SDS011;37886;53.174;6.368;2024-03-08T06:03:56;51.50;;;15.10;;
51838;SDS011;37886;53.174;6.368;2024-03-08T06:06:22;42.20;;;14.82;;
51838;SDS011;37886;53.174;6.368;2024-03-08T06:08:51;39.45;;;15.13;;
51838;SDS011;37886;53.174;6.368;2024-03-08T06:11:18;39.53;;;14.77;;
51838;SDS011;37886;53.174;6.368;2024-03-08T06:13:47;35.42;;;13.95;;
51838;SDS011;37886;53.174;6.368;2024-03-08T06:16:14;39.35;;;13.85;;
51838;SDS011;37886;53.174;6.368;2024-03-08T06:18:40;41.80;;;13.60;;
51838;SDS011;37886;53.174;6.368;2024-03-08T06:21:06;34.88;;;14.07;;
51838;SDS011;37886;53.174;6.368;2024-03-08T06:23:32;43.17;;;14.30;;
51838;SDS011;37886;53.174;6.368;2024-03-08T06:25:58;48.75;;;15.18;;
51838;SDS011;37886;53.174;6.368;2024-03-08T06:28:24;37.30;;;13.82;;
51838;SDS011;37886;53.174;6.368;2024-03-08T06:30:50;37.45;;;14.63;;
51838;SDS011;37886;53.174;6.368;2024-03-08T06:33:17;34.47;;;13.63;;
51838;SDS011;37886;53.174;6.368;2024-03-08T06:35:43;41.15;;;14.75;;
51838;SDS011;37886;53.174;6.368;2024-03-08T06:38:09;42.75;;;14.38;;
51838;SDS011;37886;53.174;6.368;2024-03-08T06:40:35;31.80;;;13.15;;
51838;SDS011;37886;53.174;6.368;2024-03-08T06:43:00;37.85;;;14.27;;
51838;SDS011;37886;53.174;6.368;2024-03-08T06:45:26;37.33;;;13.95;;
51838;SDS011;37886;53.174;6.368;2024-03-08T06:47:53;37.03;;;13.65;;
51838;SDS011;37886;53.174;6.368;2024-03-08T06:50:19;32.50;;;12.57;;
51838;SDS011;37886;53.174;6.368;2024-03-08T06:52:45;42.28;;;14.23;;
51838;SDS011;37886;53.174;6.368;2024-03-08T06:55:15;30.40;;;12.50;;
51838;SDS011;37886;53.174;6.368;2024-03-08T06:57:42;42.38;;;14.25;;
51838;SDS011;37886;53.174;6.368;2024-03-08T07:00:08;33.13;;;12.98;;
51838;SDS011;37886;53.174;6.368;2024-03-08T07:02:43;35.33;;;13.43;;
51838;SDS011;37886;53.174;6.368;2024-03-08T07:05:14;38.30;;;13.45;;
51838;SDS011;37886;53.174;6.368;2024-03-08T07:07:41;36.60;;;13.45;;
51838;SDS011;37886;53.174;6.368;2024-03-08T07:10:08;34.90;;;13.50;;
51838;SDS011;37886;53.174;6.368;2024-03-08T07:12:36;34.50;;;13.20;;
51838;SDS011;37886;53.174;6.368;2024-03-08T07:15:04;33.40;;;12.32;;
51838;SDS011;37886;53.174;6.368;2024-03-08T07:17:30;31.30;;;12.70;;
51838;SDS011;37886;53.174;6.368;2024-03-08T07:19:59;36.70;;;13.00;;
51838;SDS011;37886;53.174;6.368;2024-03-08T07:22:31;31.73;;;12.55;;
51838;SDS011;37886;53.174;6.368;2024-03-08T07:24:56;37.83;;;13.57;;
51838;SDS011;37886;53.174;6.368;2024-03-08T07:27:41;31.60;;;12.82;;
51838;SDS011;37886;53.174;6.368;2024-03-08T07:30:06;32.40;;;13.32;;
51838;SDS011;37886;53.174;6.368;2024-03-08T07:32:35;38.47;;;13.82;;
51838;SDS011;37886;53.174;6.368;2024-03-08T07:35:01;29.33;;;12.65;;
51838;SDS011;37886;53.174;6.368;2024-03-08T07:37:27;37.28;;;13.27;;
51838;SDS011;37886;53.174;6.368;2024-03-08T07:39:52;31.10;;;12.80;;
51838;SDS011;37886;53.174;6.368;2024-03-08T07:42:18;34.35;;;12.70;;
51838;SDS011;37886;53.174;6.368;2024-03-08T07:44:44;33.13;;;13.20;;
51838;SDS011;37886;53.174;6.368;2024-03-08T07:47:13;28.08;;;11.77;;
51838;SDS011;37886;53.174;6.368;2024-03-08T07:49:39;35.67;;;13.13;;
51838;SDS011;37886;53.174;6.368;2024-03-08T07:52:05;33.22;;;12.40;;
51838;SDS011;37886;53.174;6.368;2024-03-08T07:54:32;32.05;;;11.90;;
51838;SDS011;37886;53.174;6.368;2024-03-08T07:57:00;33.63;;;11.93;;
51838;SDS011;37886;53.174;6.368;2024-03-08T07:59:28;29.63;;;12.48;;
51838;SDS011;37886;53.174;6.368;2024-03-08T08:01:54;27.75;;;12.13;;
51838;SDS011;37886;53.174;6.368;2024-03-08T08:04:20;35.35;;;12.68;;
51838;SDS011;37886;53.174;6.368;2024-03-08T08:06:49;33.67;;;12.63;;
51838;SDS011;37886;53.174;6.368;2024-03-08T08:09:16;36.03;;;13.27;;
51838;SDS011;37886;53.174;6.368;2024-03-08T08:11:53;31.73;;;12.82;;
51838;SDS011;37886;53.174;6.368;2024-03-08T08:14:22;30.15;;;12.90;;
51838;SDS011;37886;53.174;6.368;2024-03-08T08:16:48;33.47;;;12.98;;
51838;SDS011;37886;53.174;6.368;2024-03-08T08:19:15;38.63;;;13.07;;
51838;SDS011;37886;53.174;6.368;2024-03-08T08:21:41;31.48;;;12.77;;
51838;SDS011;37886;53.174;6.368;2024-03-08T08:24:07;29.48;;;12.35;;
51838;SDS011;37886;53.174;6.368;2024-03-08T08:26:32;33.67;;;13.45;;
51838;SDS011;37886;53.174;6.368;2024-03-08T08:28:59;33.67;;;13.38;;
51838;SDS011;37886;53.174;6.368;2024-03-08T08:31:25;30.25;;;13.60;;
51838;SDS011;37886;53.174;6.368;2024-03-08T08:33:51;30.55;;;13.38;;
51838;SDS011;37886;53.174;6.368;2024-03-08T08:36:26;35.22;;;14.23;;
51838;SDS011;37886;53.174;6.368;2024-03-08T08:38:54;31.83;;;14.20;;
51838;SDS011;37886;53.174;6.368;2024-03-08T08:41:23;32.15;;;12.98;;
51838;SDS011;37886;53.174;6.368;2024-03-08T08:43:49;33.20;;;13.60;;
51838;SDS011;37886;53.174;6.368;2024-03-08T08:46:18;29.00;;;13.38;;
51838;SDS011;37886;53.174;6.368;2024-03-08T08:48:44;34.85;;;13.20;;
51838;SDS011;37886;53.174;6.368;2024-03-08T08:51:13;35.53;;;14.02;;
51838;SDS011;37886;53.174;6.368;2024-03-08T08:53:40;29.83;;;13.10;;
51838;SDS011;37886;53.174;6.368;2024-03-08T08:56:12;30.45;;;13.65;;
51838;SDS011;37886;53.174;6.368;2024-03-08T08:58:44;33.28;;;13.30;;
51838;SDS011;37886;53.174;6.368;2024-03-08T09:01:10;34.60;;;12.82;;
51838;SDS011;37886;53.174;6.368;2024-03-08T09:03:36;27.67;;;12.98;;
51838;SDS011;37886;53.174;6.368;2024-03-08T09:06:08;29.60;;;13.68;;
51838;SDS011;37886;53.174;6.368;2024-03-08T09:08:38;36.58;;;14.02;;
51838;SDS011;37886;53.174;6.368;2024-03-08T09:11:04;28.00;;;12.98;;
51838;SDS011;37886;53.174;6.368;2024-03-08T09:13:31;31.05;;;14.27;;
51838;SDS011;37886;53.174;6.368;2024-03-08T09:15:57;27.83;;;12.75;;
51838;SDS011;37886;53.174;6.368;2024-03-08T09:18:22;30.35;;;13.73;;
51838;SDS011;37886;53.174;6.368;2024-03-08T09:20:49;29.73;;;12.82;;
51838;SDS011;37886;53.174;6.368;2024-03-08T09:23:16;33.45;;;13.75;;
51838;SDS011;37886;53.174;6.368;2024-03-08T09:25:44;32.67;;;12.55;;
51838;SDS011;37886;53.174;6.368;2024-03-08T09:28:11;27.77;;;12.27;;
51838;SDS011;37886;53.174;6.368;2024-03-08T09:30:40;29.02;;;12.02;;
51838;SDS011;37886;53.174;6.368;2024-03-08T09:33:06;27.25;;;12.07;;
51838;SDS011;37886;53.174;6.368;2024-03-08T09:35:32;27.48;;;11.00;;
51838;SDS011;37886;53.174;6.368;2024-03-08T09:37:58;29.15;;;11.32;;
51838;SDS011;37886;53.174;6.368;2024-03-08T09:40:24;27.55;;;11.23;;
51838;SDS011;37886;53.174;6.368;2024-03-08T09:42:50;34.35;;;11.80;;
51838;SDS011;37886;53.174;6.368;2024-03-08T09:45:17;30.88;;;11.68;;
51838;SDS011;37886;53.174;6.368;2024-03-08T09:47:49;29.60;;;12.85;;
51838;SDS011;37886;53.174;6.368;2024-03-08T09:50:16;27.05;;;12.05;;
51838;SDS011;37886;53.174;6.368;2024-03-08T09:52:43;27.30;;;12.13;;
51838;SDS011;37886;53.174;6.368;2024-03-08T09:55:12;31.83;;;12.98;;
51838;SDS011;37886;53.174;6.368;2024-03-08T09:57:38;28.88;;;12.85;;
51838;SDS011;37886;53.174;6.368;2024-03-08T10:00:05;37.00;;;13.30;;
51838;SDS011;37886;53.174;6.368;2024-03-08T10:02:46;27.95;;;12.10;;
51838;SDS011;37886;53.174;6.368;2024-03-08T10:05:13;25.90;;;10.48;;
51838;SDS011;37886;53.174;6.368;2024-03-08T10:07:39;30.17;;;12.57;;
51838;SDS011;37886;53.174;6.368;2024-03-08T10:10:05;30.42;;;12.77;;
51838;SDS011;37886;53.174;6.368;2024-03-08T10:12:34;33.80;;;13.23;;
51838;SDS011;37886;53.174;6.368;2024-03-08T10:15:00;26.58;;;12.32;;
51838;SDS011;37886;53.174;6.368;2024-03-08T10:17:26;34.60;;;13.05;;
51838;SDS011;37886;53.174;6.368;2024-03-08T10:19:57;28.17;;;12.82;;
51838;SDS011;37886;53.174;6.368;2024-03-08T10:22:25;27.00;;;13.00;;
51838;SDS011;37886;53.174;6.368;2024-03-08T10:24:51;28.38;;;13.32;;
51838;SDS011;37886;53.174;6.368;2024-03-08T10:27:17;27.70;;;12.80;;
51838;SDS011;37886;53.174;6.368;2024-03-08T10:29:46;30.20;;;13.18;;
51838;SDS011;37886;53.174;6.368;2024-03-08T10:32:16;29.95;;;13.20;;
51838;SDS011;37886;53.174;6.368;2024-03-08T10:34:42;25.45;;;12.32;;
51838;SDS011;37886;53.174;6.368;2024-03-08T10:37:11;31.20;;;13.20;;
51838;SDS011;37886;53.174;6.368;2024-03-08T10:39:48;30.33;;;12.93;;
51838;SDS011;37886;53.174;6.368;2024-03-08T10:42:35;25.98;;;12.93;;
51838;SDS011;37886;53.174;6.368;2024-03-08T10:45:19;31.98;;;13.07;;
51838;SDS011;37886;53.174;6.368;2024-03-08T10:51:03;30.67;;;13.57;;
51838;SDS011;37886;53.174;6.368;2024-03-08T10:53:30;30.83;;;13.32;;
51838;SDS011;37886;53.174;6.368;2024-03-08T10:55:56;31.13;;;13.25;;
51838;SDS011;37886;53.174;6.368;2024-03-08T10:58:23;30.92;;;12.73;;
51838;SDS011;37886;53.174;6.368;2024-03-08T11:00:57;26.05;;;12.18;;
51838;SDS011;37886;53.174;6.368;2024-03-08T11:09:04;30.25;;;12.05;;
51838;SDS011;37886;53.174;6.368;2024-03-08T11:11:38;24.77;;;12.13;;
51838;SDS011;37886;53.174;6.368;2024-03-08T11:14:08;27.27;;;13.15;;
51838;SDS011;37886;53.174;6.368;2024-03-08T11:17:09;25.70;;;12.23;;
51838;SDS011;37886;53.174;6.368;2024-03-08T11:19:35;28.13;;;12.18;;
51838;SDS011;37886;53.174;6.368;2024-03-08T11:22:01;25.65;;;12.93;;
51838;SDS011;37886;53.174;6.368;2024-03-08T11:24:35;25.77;;;12.32;;
51838;SDS011;37886;53.174;6.368;2024-03-08T11:27:03;29.45;;;12.98;;
51838;SDS011;37886;53.174;6.368;2024-03-08T11:32:05;25.98;;;12.57;;
51838;SDS011;37886;53.174;6.368;2024-03-08T11:34:35;28.75;;;13.50;;
51838;SDS011;37886;53.174;6.368;2024-03-08T11:37:05;29.70;;;13.40;;
51838;SDS011;37886;53.174;6.368;2024-03-08T11:39:37;27.27;;;13.60;;
51838;SDS011;37886;53.174;6.368;2024-03-08T11:42:14;26.95;;;12.48;;
51838;SDS011;37886;53.174;6.368;2024-03-08T11:44:43;24.83;;;11.73;;
51838;SDS011;37886;53.174;6.368;2024-03-08T11:47:16;27.42;;;12.77;;
51838;SDS011;37886;53.174;6.368;2024-03-08T11:49:42;26.77;;;12.60;;
51838;SDS011;37886;53.174;6.368;2024-03-08T11:52:13;25.23;;;12.48;;
51838;SDS011;37886;53.174;6.368;2024-03-08T11:54:51;26.10;;;12.80;;
51838;SDS011;37886;53.174;6.368;2024-03-08T11:57:22;27.80;;;13.27;;
51838;SDS011;37886;53.174;6.368;2024-03-08T11:59:55;22.58;;;12.02;;
51838;SDS011;37886;53.174;6.368;2024-03-08T12:02:31;26.55;;;12.80;;
51838;SDS011;37886;53.174;6.368;2024-03-08T12:05:00;27.60;;;12.55;;
51838;SDS011;37886;53.174;6.368;2024-03-08T12:07:31;28.08;;;12.80;;
51838;SDS011;37886;53.174;6.368;2024-03-08T12:12:55;25.75;;;12.57;;
51838;SDS011;37886;53.174;6.368;2024-03-08T12:15:24;24.38;;;12.77;;
51838;SDS011;37886;53.174;6.368;2024-03-08T12:17:51;28.38;;;13.15;;
51838;SDS011;37886;53.174;6.368;2024-03-08T12:20:20;27.63;;;13.48;;
51838;SDS011;37886;53.174;6.368;2024-03-08T12:22:47;25.50;;;13.10;;
51838;SDS011;37886;53.174;6.368;2024-03-08T12:25:14;30.95;;;13.15;;
51838;SDS011;37886;53.174;6.368;2024-03-08T12:27:41;28.38;;;12.90;;
51838;SDS011;37886;53.174;6.368;2024-03-08T12:33:22;27.02;;;13.15;;
51838;SDS011;37886;53.174;6.368;2024-03-08T12:35:51;23.75;;;11.98;;
51838;SDS011;37886;53.174;6.368;2024-03-08T12:38:20;29.25;;;12.77;;
51838;SDS011;37886;53.174;6.368;2024-03-08T12:40:59;28.67;;;13.38;;
51838;SDS011;37886;53.174;6.368;2024-03-08T12:43:25;25.80;;;12.77;;
51838;SDS011;37886;53.174;6.368;2024-03-08T12:45:51;24.80;;;12.88;;
51838;SDS011;37886;53.174;6.368;2024-03-08T12:48:17;28.77;;;13.23;;
51838;SDS011;37886;53.174;6.368;2024-03-08T12:50:45;22.85;;;11.43;;
51838;SDS011;37886;53.174;6.368;2024-03-08T12:53:13;24.02;;;12.48;;
51838;SDS011;37886;53.174;6.368;2024-03-08T12:55:42;26.35;;;12.45;;
51838;SDS011;37886;53.174;6.368;2024-03-08T12:58:08;23.38;;;11.95;;
51838;SDS011;37886;53.174;6.368;2024-03-08T13:00:34;25.38;;;12.30;;
51838;SDS011;37886;53.174;6.368;2024-03-08T13:03:08;24.23;;;12.27;;
51838;SDS011;37886;53.174;6.368;2024-03-08T13:05:36;24.95;;;11.80;;
51838;SDS011;37886;53.174;6.368;2024-03-08T13:08:05;22.38;;;11.68;;
51838;SDS011;37886;53.174;6.368;2024-03-08T13:10:37;25.40;;;12.02;;
51838;SDS011;37886;53.174;6.368;2024-03-08T13:13:03;22.30;;;11.40;;
51838;SDS011;37886;53.174;6.368;2024-03-08T13:15:30;23.77;;;11.38;;
51838;SDS011;37886;53.174;6.368;2024-03-08T13:17:55;23.00;;;11.68;;
51838;SDS011;37886;53.174;6.368;2024-03-08T13:20:25;22.95;;;12.00;;
51838;SDS011;37886;53.174;6.368;2024-03-08T13:22:53;24.65;;;11.52;;
51838;SDS011;37886;53.174;6.368;2024-03-08T13:25:20;24.83;;;11.65;;
51838;SDS011;37886;53.174;6.368;2024-03-08T13:27:46;23.55;;;11.18;;
51838;SDS011;37886;53.174;6.368;2024-03-08T13:30:12;23.67;;;10.98;;
51838;SDS011;37886;53.174;6.368;2024-03-08T13:32:40;24.58;;;10.93;;
51838;SDS011;37886;53.174;6.368;2024-03-08T13:35:09;22.10;;;11.35;;
51838;SDS011;37886;53.174;6.368;2024-03-08T13:37:39;19.65;;;10.68;;
51838;SDS011;37886;53.174;6.368;2024-03-08T13:40:09;23.27;;;11.02;;
51838;SDS011;37886;53.174;6.368;2024-03-08T13:42:44;21.63;;;9.40;;
51838;SDS011;37886;53.174;6.368;2024-03-08T13:45:09;19.23;;;10.25;;
51838;SDS011;37886;53.174;6.368;2024-03-08T13:47:40;24.50;;;10.00;;
51838;SDS011;37886;53.174;6.368;2024-03-08T13:50:09;20.42;;;9.88;;
51838;SDS011;37886;53.174;6.368;2024-03-08T13:52:41;21.67;;;10.68;;
51838;SDS011;37886;53.174;6.368;2024-03-08T13:55:09;20.27;;;10.25;;
51838;SDS011;37886;53.174;6.368;2024-03-08T13:57:35;20.88;;;10.27;;
51838;SDS011;37886;53.174;6.368;2024-03-08T14:00:01;23.48;;;10.30;;
51838;SDS011;37886;53.174;6.368;2024-03-08T14:02:28;24.52;;;9.77;;
51838;SDS011;37886;53.174;6.368;2024-03-08T14:04:55;19.63;;;9.82;;
51838;SDS011;37886;53.174;6.368;2024-03-08T14:07:22;20.40;;;9.80;;
51838;SDS011;37886;53.174;6.368;2024-03-08T14:09:48;20.48;;;10.18;;
51838;SDS011;37886;53.174;6.368;2024-03-08T14:12:18;20.27;;;10.25;;
51838;SDS011;37886;53.174;6.368;2024-03-08T14:14:44;18.40;;;9.93;;
51838;SDS011;37886;53.174;6.368;2024-03-08T14:17:10;23.48;;;10.50;;
51838;SDS011;37886;53.174;6.368;2024-03-08T14:19:39;15.77;;;9.20;;
51838;SDS011;37886;53.174;6.368;2024-03-08T14:22:05;16.98;;;9.13;;
51838;SDS011;37886;53.174;6.368;2024-03-08T14:24:31;18.20;;;9.35;;
51838;SDS011;37886;53.174;6.368;2024-03-08T14:27:00;18.55;;;10.00;;
51838;SDS011;37886;53.174;6.368;2024-03-08T14:29:28;18.55;;;9.32;;
51838;SDS011;37886;53.174;6.368;2024-03-08T14:31:56;18.13;;;9.55;;
51838;SDS011;37886;53.174;6.368;2024-03-08T14:34:26;18.80;;;9.95;;
51838;SDS011;37886;53.174;6.368;2024-03-08T14:36:53;15.57;;;8.88;;
51838;SDS011;37886;53.174;6.368;2024-03-08T14:39:19;18.05;;;9.18;;
51838;SDS011;37886;53.174;6.368;2024-03-08T14:41:54;15.77;;;8.88;;